Time;durP1;ratioP1;P1;durP2;ratioP2;P2;SDS_P1;SDS_P2;PMS_P1;PMS_P2;Temp;Humidity;BMP_temperature;BMP_pressure;BME280_temperature;BME280_humidity;BME280_pressure;Samples;Min_cycle;Max_cycle;Signal;HPM_P1;HPM_P2
2021/08/08 00:02:10;;;;;;;2.97;1.00;;;15.80;39.90;;;;;;5111658;27;20126;-76
2021/08/08 00:04:58;;;;;;;2.97;0.90;;;15.80;39.50;;;;;;5115725;27;20042;-76
2021/08/08 00:07:49;;;;;;;2.30;1.00;;;15.80;40.70;;;;;;5112771;27;20516;-76
2021/08/08 00:10:38;;;;;;;1.88;0.90;;;15.80;42.10;;;;;;5103930;27;20047;-76
2021/08/08 00:13:27;;;;;;;1.17;1.00;;;15.80;42.20;;;;;;5107649;27;20046;-77
2021/08/08 00:16:16;;;;;;;3.13;1.25;;;15.80;42.20;;;;;;5099244;27;20057;-76
2021/08/08 00:19:04;;;;;;;5.32;1.40;;;15.70;42.20;;;;;;5106222;27;20470;-77
2021/08/08 00:21:53;;;;;;;2.88;0.80;;;15.70;42.10;;;;;;5106920;27;20181;-77
2021/08/08 00:24:43;;;;;;;3.63;1.10;;;15.60;40.90;;;;;;5107542;27;20522;-76
2021/08/08 00:27:31;;;;;;;3.70;1.10;;;15.60;40.80;;;;;;5108986;27;20118;-76
2021/08/08 00:30:24;;;;;;;2.70;0.90;;;15.50;40.30;;;;;;5110514;27;20048;-76
2021/08/08 00:33:13;;;;;;;2.40;0.60;;;15.50;39.20;;;;;;5112324;27;20043;-76
2021/08/08 00:36:07;;;;;;;3.93;1.10;;;15.50;35.40;;;;;;5108410;27;20542;-76
2021/08/08 00:38:58;;;;;;;1.52;0.77;;;15.60;35.00;;;;;;5087886;27;20043;-77
2021/08/08 00:41:49;;;;;;;2.00;0.70;;;15.50;34.10;;;;;;5088515;28;20510;-77
2021/08/08 00:44:37;;;;;;;3.38;0.80;;;15.50;33.30;;;;;;5101688;27;20074;-77
2021/08/08 00:47:26;;;;;;;2.80;0.70;;;15.40;33.30;;;;;;5108398;27;20051;-77
2021/08/08 00:50:16;;;;;;;4.88;0.95;;;15.40;34.10;;;;;;5088334;27;20127;-77
2021/08/08 00:53:07;;;;;;;3.22;0.90;;;15.40;33.60;;;;;;5087845;28;20487;-77
2021/08/08 00:55:57;;;;;;;5.03;0.70;;;15.40;35.70;;;;;;5092291;28;20044;-77
2021/08/08 00:58:48;;;;;;;1.90;0.70;;;15.30;36.20;;;;;;5089317;27;20044;-77
2021/08/08 01:01:43;;;;;;;2.50;0.82;;;15.30;36.70;;;;;;5091264;27;20059;-77
2021/08/08 01:04:37;;;;;;;1.75;0.70;;;15.30;37.50;;;;;;5089179;28;20142;-75
2021/08/08 01:07:35;;;;;;;2.73;0.77;;;15.30;37.60;;;;;;5091629;27;20047;-78
2021/08/08 01:10:24;;;;;;;3.47;0.90;;;15.30;38.00;;;;;;5111639;27;20126;-77
2021/08/08 01:13:14;;;;;;;4.47;0.88;;;15.20;38.90;;;;;;5106778;27;20512;-77
2021/08/08 01:16:05;;;;;;;4.45;0.90;;;15.20;39.00;;;;;;5092482;28;20554;-77
2021/08/08 01:18:55;;;;;;;3.05;0.93;;;15.20;39.70;;;;;;5090188;28;20147;-77
2021/08/08 01:21:45;;;;;;;2.70;1.05;;;15.20;39.30;;;;;;5076117;28;20047;-77
2021/08/08 01:24:37;;;;;;;1.75;0.80;;;15.30;36.90;;;;;;5095115;28;20047;-78
2021/08/08 01:27:27;;;;;;;3.38;0.95;;;15.30;37.00;;;;;;5065061;28;20054;-77
2021/08/08 01:30:16;;;;;;;5.00;0.90;;;15.30;35.50;;;;;;5087827;28;20110;-77
2021/08/08 01:33:06;;;;;;;2.30;0.60;;;15.30;36.10;;;;;;5088876;28;20870;-77
2021/08/08 01:36:01;;;;;;;2.75;0.68;;;15.40;35.60;;;;;;5092526;28;20379;-77
2021/08/08 01:38:57;;;;;;;6.38;0.77;;;15.30;35.80;;;;;;5088344;28;20051;-79
2021/08/08 01:41:51;;;;;;;2.03;0.70;;;15.30;36.90;;;;;;5088454;28;20047;-79
2021/08/08 01:44:46;;;;;;;2.80;1.00;;;15.30;36.60;;;;;;5087685;28;20043;-79
2021/08/08 01:47:40;;;;;;;5.25;1.27;;;15.30;37.00;;;;;;5106658;28;20039;-79
2021/08/08 01:50:39;;;;;;;2.25;0.90;;;15.30;36.80;;;;;;5097218;28;20421;-79
2021/08/08 01:53:30;;;;;;;5.07;0.70;;;15.30;37.40;;;;;;5092068;28;20039;-77
2021/08/08 01:56:19;;;;;;;1.10;0.88;;;15.30;36.40;;;;;;5090982;28;20524;-79
2021/08/08 01:59:13;;;;;;;3.95;1.35;;;15.20;37.10;;;;;;5088193;28;20050;-78
2021/08/08 02:02:09;;;;;;;3.28;1.00;;;15.20;38.30;;;;;;5090584;28;20051;-79
2021/08/08 02:05:00;;;;;;;1.98;1.02;;;15.20;37.90;;;;;;5077064;28;20092;-79
2021/08/08 02:07:50;;;;;;;3.40;0.93;;;15.10;39.00;;;;;;5090086;28;20054;-78
2021/08/08 02:10:40;;;;;;;3.05;0.90;;;15.10;38.70;;;;;;5076693;28;20039;-79
2021/08/08 02:13:29;;;;;;;2.03;0.80;;;15.00;39.20;;;;;;5090602;28;20071;-79
2021/08/08 02:16:22;;;;;;;2.28;0.85;;;14.90;39.60;;;;;;5085676;28;20059;-79
2021/08/08 02:19:12;;;;;;;12.20;1.20;;;14.90;40.80;;;;;;5087391;28;20109;-77
2021/08/08 02:22:07;;;;;;;3.83;0.80;;;14.90;41.20;;;;;;5088670;28;20611;-77
2021/08/08 02:25:05;;;;;;;3.38;0.85;;;14.80;41.30;;;;;;5084815;28;20514;-77
2021/08/08 02:27:58;;;;;;;2.50;0.95;;;14.80;41.30;;;;;;5100950;28;20043;-77
2021/08/08 02:30:55;;;;;;;5.05;0.90;;;14.70;41.20;;;;;;5085807;28;20058;-78
2021/08/08 02:33:48;;;;;;;5.38;0.90;;;14.70;41.70;;;;;;5088047;28;20054;-78
2021/08/08 02:36:37;;;;;;;2.13;0.90;;;14.70;41.20;;;;;;5086274;28;20055;-78
2021/08/08 02:39:26;;;;;;;2.15;0.90;;;14.70;41.70;;;;;;5071003;28;20127;-78
2021/08/08 02:42:14;;;;;;;2.75;1.20;;;14.60;42.50;;;;;;5080612;27;20047;-78
2021/08/08 02:45:03;;;;;;;3.50;0.90;;;14.60;43.00;;;;;;5096976;27;20039;-79
2021/08/08 02:47:52;;;;;;;1.00;0.80;;;14.60;42.80;;;;;;5088450;28;20047;-78
2021/08/08 02:50:46;;;;;;;1.77;0.80;;;14.60;43.10;;;;;;5105308;27;20390;-77
2021/08/08 02:53:36;;;;;;;3.28;0.77;;;14.70;41.20;;;;;;5103467;27;20051;-78
2021/08/08 02:56:24;;;;;;;1.23;0.90;;;14.70;39.40;;;;;;5093495;27;20123;-78
2021/08/08 02:59:13;;;;;;;4.78;0.85;;;14.70;38.50;;;;;;5091077;27;20039;-78
2021/08/08 03:02:07;;;;;;;1.17;0.73;;;14.70;38.00;;;;;;5099135;27;20086;-78
2021/08/08 03:04:57;;;;;;;1.67;0.80;;;14.70;37.40;;;;;;5094151;27;20054;-78
2021/08/08 03:07:49;;;;;;;2.47;0.90;;;14.70;37.50;;;;;;5087806;28;20556;-77
2021/08/08 03:10:39;;;;;;;2.85;0.93;;;14.70;37.50;;;;;;5092967;28;20044;-77
2021/08/08 03:13:28;;;;;;;1.67;0.80;;;14.70;37.20;;;;;;5098278;27;20534;-77
2021/08/08 03:16:16;;;;;;;1.00;0.70;;;14.60;39.40;;;;;;5104327;27;20054;-76
2021/08/08 03:19:07;;;;;;;2.63;0.70;;;14.60;38.80;;;;;;5091018;27;20103;-77
2021/08/08 03:21:55;;;;;;;7.43;1.15;;;14.50;41.00;;;;;;5094843;27;20422;-77
2021/08/08 03:24:45;;;;;;;4.00;1.00;;;14.50;41.00;;;;;;5097973;27;20051;-78
2021/08/08 03:27:34;;;;;;;3.63;0.93;;;14.50;40.70;;;;;;5112845;27;20521;-78
2021/08/08 03:30:27;;;;;;;2.05;0.80;;;14.50;40.60;;;;;;5093124;27;20904;-77
2021/08/08 03:33:16;;;;;;;3.50;0.90;;;14.50;39.70;;;;;;5080142;28;21542;-78
2021/08/08 03:36:05;;;;;;;2.65;1.02;;;14.50;41.00;;;;;;5093822;27;20070;-77
2021/08/08 03:38:54;;;;;;;1.13;0.90;;;14.40;41.60;;;;;;5080783;27;20521;-78
2021/08/08 03:41:44;;;;;;;2.65;0.95;;;14.40;42.70;;;;;;5092806;27;20047;-78
2021/08/08 03:44:36;;;;;;;3.80;1.65;;;14.30;42.20;;;;;;5090433;28;20070;-77
2021/08/08 03:47:25;;;;;;;4.55;0.90;;;14.30;42.70;;;;;;5093986;27;20174;-77
2021/08/08 03:50:13;;;;;;;2.65;1.00;;;14.20;43.70;;;;;;5087914;28;20058;-77
2021/08/08 03:53:02;;;;;;;2.17;0.90;;;14.20;45.40;;;;;;5113238;27;20051;-77
2021/08/08 03:55:51;;;;;;;1.85;1.20;;;14.20;45.40;;;;;;5091204;27;20178;-77
2021/08/08 03:58:41;;;;;;;7.22;1.08;;;14.20;45.70;;;;;;5086358;28;20051;-77
2021/08/08 04:01:30;;;;;;;3.55;1.00;;;14.20;46.00;;;;;;5077642;27;20040;-77
2021/08/08 04:04:20;;;;;;;3.33;1.60;;;14.20;46.50;;;;;;5093691;27;20052;-77
2021/08/08 04:07:08;;;;;;;1.83;0.80;;;14.20;45.40;;;;;;5090270;27;20063;-77
2021/08/08 04:09:57;;;;;;;4.70;1.52;;;14.20;46.00;;;;;;5074966;27;20047;-77
2021/08/08 04:12:46;;;;;;;3.00;1.30;;;14.20;46.40;;;;;;5101134;27;20126;-77
2021/08/08 04:15:40;;;;;;;2.50;0.95;;;14.20;46.50;;;;;;5091563;28;20548;-77
2021/08/08 04:18:30;;;;;;;3.72;1.20;;;14.30;46.50;;;;;;5088944;28;20052;-77
2021/08/08 04:21:19;;;;;;;3.65;1.30;;;14.30;47.20;;;;;;5091131;28;20449;-77
2021/08/08 04:24:07;;;;;;;1.83;1.20;;;14.30;46.70;;;;;;5094131;27;20078;-77
2021/08/08 04:26:56;;;;;;;2.70;1.33;;;14.40;45.90;;;;;;5108529;27;20042;-77
2021/08/08 04:29:44;;;;;;;4.68;1.80;;;14.50;45.20;;;;;;5109228;27;20126;-77
2021/08/08 04:32:34;;;;;;;3.33;1.20;;;14.60;45.30;;;;;;5111416;27;20039;-77
2021/08/08 04:35:29;;;;;;;3.10;1.40;;;14.80;44.30;;;;;;5086252;27;20102;-77
2021/08/08 04:38:18;;;;;;;4.05;1.23;;;16.00;29.30;;;;;;5089725;27;20486;-77
2021/08/08 04:41:07;;;;;;;3.25;1.02;;;16.60;20.50;;;;;;5097071;27;20151;-77
2021/08/08 04:43:56;;;;;;;1.67;1.00;;;17.80;12.20;;;;;;5114103;27;20050;-77
2021/08/08 04:46:44;;;;;;;4.28;1.20;;;17.70;9.30;;;;;;5077985;27;20124;-77
2021/08/08 04:49:34;;;;;;;3.55;0.80;;;18.40;7.60;;;;;;5089028;27;20458;-77
2021/08/08 04:52:24;;;;;;;4.32;1.40;;;18.50;3.00;;;;;;5094482;27;20150;-77
2021/08/08 04:55:13;;;;;;;7.05;1.20;;;18.60;2.30;;;;;;5113210;27;20057;-78
2021/08/08 04:58:01;;;;;;;6.65;1.33;;;18.90;1.00;;;;;;5086273;27;20467;-78
2021/08/08 05:00:50;;;;;;;5.35;1.85;;;19.10;1.00;;;;;;5086844;27;20138;-78
2021/08/08 05:03:39;;;;;;;6.28;0.98;;;18.70;1.00;;;;;;5067271;28;20454;-78
2021/08/08 05:06:28;;;;;;;6.38;1.48;;;18.40;1.00;;;;;;5087818;27;20498;-78
2021/08/08 05:09:18;;;;;;;6.13;1.52;;;19.80;1.00;;;;;;5088093;27;20058;-78
2021/08/08 05:12:08;;;;;;;5.13;0.90;;;19.30;1.00;;;;;;5090646;27;20454;-78
2021/08/08 05:14:58;;;;;;;3.70;0.90;;;20.50;1.00;;;;;;5093431;28;20494;-78
2021/08/08 05:17:47;;;;;;;4.18;0.90;;;20.50;1.00;;;;;;5074432;28;20053;-77
2021/08/08 05:20:36;;;;;;;4.63;1.10;;;20.60;1.00;;;;;;5093077;27;20585;-78
2021/08/08 05:23:27;;;;;;;2.05;0.82;;;20.50;1.00;;;;;;5090143;28;20056;-78
2021/08/08 05:26:15;;;;;;;1.95;0.95;;;20.80;1.00;;;;;;5089824;28;20498;-78
2021/08/08 05:29:04;;;;;;;3.22;0.88;;;20.70;1.00;;;;;;5081141;28;20047;-78
2021/08/08 05:31:53;;;;;;;2.00;0.90;;;21.80;1.00;;;;;;5094788;28;20047;-78
2021/08/08 05:34:43;;;;;;;1.70;0.80;;;22.40;1.00;;;;;;5090378;28;20058;-78
2021/08/08 05:37:31;;;;;;;3.85;0.68;;;21.80;1.00;;;;;;5089531;27;20123;-78
2021/08/08 05:40:22;;;;;;;0.98;0.60;;;22.20;1.00;;;;;;5101970;27;20051;-78
2021/08/08 05:43:11;;;;;;;1.52;0.80;;;21.90;1.00;;;;;;5090997;28;20067;-79
2021/08/08 05:46:00;;;;;;;1.98;0.80;;;21.20;1.00;;;;;;5089912;28;20060;-78
2021/08/08 05:48:48;;;;;;;4.03;0.70;;;21.40;1.00;;;;;;5087851;28;20153;-78
2021/08/08 05:51:40;;;;;;;3.17;0.90;;;21.80;1.00;;;;;;5090029;28;20089;-78
2021/08/08 05:54:29;;;;;;;4.07;0.95;;;22.00;1.00;;;;;;5089856;28;20379;-78
2021/08/08 05:57:19;;;;;;;1.67;0.82;;;19.70;1.00;;;;;;5090519;28;20506;-78
2021/08/08 06:00:09;;;;;;;1.75;0.90;;;19.20;1.00;;;;;;5101664;28;20131;-79
2021/08/08 06:03:07;;;;;;;2.30;0.90;;;18.70;2.30;;;;;;5092354;28;20054;-79
2021/08/08 06:05:55;;;;;;;2.20;0.68;;;18.50;4.00;;;;;;5107597;28;20040;-79
2021/08/08 06:08:44;;;;;;;1.13;0.60;;;18.20;4.40;;;;;;5087092;28;20040;-79
2021/08/08 06:11:32;;;;;;;3.03;0.93;;;18.30;5.20;;;;;;5075183;28;20160;-79
2021/08/08 06:14:23;;;;;;;0.88;0.55;;;18.30;5.00;;;;;;5101109;27;20421;-78
2021/08/08 06:17:15;;;;;;;0.90;0.45;;;18.60;3.10;;;;;;5098154;27;20516;-78
2021/08/08 06:20:03;;;;;;;2.05;1.27;;;18.60;3.20;;;;;;5096982;27;20035;-79
2021/08/08 06:22:56;;;;;;;1.63;0.75;;;18.70;3.10;;;;;;5098973;27;20036;-79
2021/08/08 06:25:45;;;;;;;1.42;0.70;;;18.80;2.30;;;;;;5105342;27;20112;-79
2021/08/08 06:28:33;;;;;;;4.18;2.00;;;19.00;1.60;;;;;;5105636;27;20047;-79
2021/08/08 06:31:23;;;;;;;1.10;0.60;;;19.00;1.70;;;;;;5091227;27;20529;-79
2021/08/08 06:34:13;;;;;;;2.58;0.70;;;18.80;1.00;;;;;;5087685;27;20066;-79
2021/08/08 06:37:02;;;;;;;0.95;0.50;;;19.30;1.00;;;;;;5098780;27;20047;-79
2021/08/08 06:39:51;;;;;;;1.27;0.55;;;19.10;1.00;;;;;;5101162;27;20043;-79
2021/08/08 06:42:40;;;;;;;4.13;0.85;;;19.00;1.00;;;;;;5100004;27;20521;-79
2021/08/08 06:45:32;;;;;;;1.95;0.70;;;18.50;2.20;;;;;;5096658;27;20052;-80
2021/08/08 06:48:21;;;;;;;3.08;0.70;;;18.80;1.50;;;;;;5089872;27;20043;-80
2021/08/08 06:51:11;;;;;;;1.77;0.60;;;19.00;2.60;;;;;;5084678;27;20783;-79
2021/08/08 06:53:59;;;;;;;2.42;0.70;;;18.80;2.50;;;;;;5112972;27;20061;-80
2021/08/08 06:56:48;;;;;;;0.95;0.55;;;18.70;2.40;;;;;;5096358;27;20124;-80
2021/08/08 06:59:39;;;;;;;3.63;0.80;;;18.40;2.60;;;;;;5092131;27;20040;-80
2021/08/08 07:02:28;;;;;;;0.95;0.60;;;18.60;2.30;;;;;;5109433;27;20047;-80
2021/08/08 07:05:18;;;;;;;0.70;0.50;;;19.00;1.50;;;;;;5103719;27;20513;-79
2021/08/08 07:08:09;;;;;;;2.70;0.90;;;19.10;1.00;;;;;;5110224;27;20062;-79
2021/08/08 07:10:58;;;;;;;2.95;0.90;;;19.30;1.00;;;;;;5093654;27;20089;-80
2021/08/08 07:13:46;;;;;;;1.45;0.70;;;19.60;1.00;;;;;;5087964;27;20053;-80
2021/08/08 07:16:35;;;;;;;3.08;0.80;;;19.30;1.00;;;;;;5097981;27;20765;-80
2021/08/08 07:19:24;;;;;;;2.88;0.65;;;19.70;1.00;;;;;;5090789;27;20053;-80
2021/08/08 07:22:15;;;;;;;2.50;0.90;;;19.70;1.00;;;;;;5079966;27;20575;-80
2021/08/08 07:25:05;;;;;;;2.95;0.80;;;20.00;1.00;;;;;;5098285;27;20044;-80
2021/08/08 07:27:54;;;;;;;3.97;0.90;;;20.00;1.00;;;;;;5090353;27;20078;-79
2021/08/08 07:30:43;;;;;;;2.40;0.90;;;20.10;1.00;;;;;;5095862;27;20051;-80
2021/08/08 07:33:32;;;;;;;1.40;0.80;;;20.90;1.00;;;;;;5112517;27;20051;-80
2021/08/08 07:36:21;;;;;;;2.65;0.80;;;20.80;1.00;;;;;;5091248;27;20059;-80
2021/08/08 07:39:11;;;;;;;2.22;1.10;;;20.80;1.00;;;;;;5093222;27;20040;-78
2021/08/08 07:41:59;;;;;;;2.33;0.70;;;20.40;1.00;;;;;;5094026;27;20061;-80
2021/08/08 07:44:48;;;;;;;1.67;0.90;;;20.40;1.00;;;;;;5092469;27;20269;-80
2021/08/08 07:47:36;;;;;;;2.35;1.25;;;20.50;1.00;;;;;;5104991;27;20395;-80
2021/08/08 07:50:25;;;;;;;1.85;0.95;;;20.70;1.00;;;;;;5095953;27;20051;-80
2021/08/08 07:53:15;;;;;;;1.20;0.80;;;20.20;1.00;;;;;;5090890;27;20135;-80
2021/08/08 07:56:05;;;;;;;2.20;0.85;;;20.20;1.00;;;;;;5092043;27;20039;-80
2021/08/08 07:58:54;;;;;;;3.97;1.00;;;20.30;1.00;;;;;;5090032;27;20047;-79
2021/08/08 08:01:43;;;;;;;4.15;1.13;;;19.70;1.00;;;;;;5099335;27;20046;-80
2021/08/08 08:04:32;;;;;;;12.05;1.27;;;20.40;1.00;;;;;;5093865;28;20063;-80
2021/08/08 08:07:21;;;;;;;4.60;1.33;;;20.80;1.00;;;;;;5109506;27;20047;-80
2021/08/08 08:10:11;;;;;;;5.03;1.27;;;20.90;1.00;;;;;;5111837;27;20158;-79
2021/08/08 08:13:01;;;;;;;2.25;0.82;;;20.80;1.00;;;;;;5094533;27;20051;-79
2021/08/08 08:15:50;;;;;;;2.30;1.08;;;20.50;1.00;;;;;;5106728;27;20611;-80
2021/08/08 08:18:38;;;;;;;3.88;1.25;;;20.70;1.00;;;;;;5105593;27;20043;-80
2021/08/08 08:21:27;;;;;;;3.53;1.40;;;21.00;1.00;;;;;;5085646;27;20184;-81
2021/08/08 08:24:16;;;;;;;1.48;0.82;;;21.50;1.00;;;;;;5113395;27;20116;-80
2021/08/08 08:27:06;;;;;;;4.78;1.15;;;21.60;1.00;;;;;;5089824;27;20046;-81
2021/08/08 08:29:57;;;;;;;1.73;0.90;;;21.20;1.00;;;;;;5112786;27;20043;-80
2021/08/08 08:32:46;;;;;;;2.17;1.20;;;20.90;1.00;;;;;;5090015;27;20058;-81
2021/08/08 08:35:35;;;;;;;2.50;1.20;;;21.20;1.00;;;;;;5113073;27;20066;-81
2021/08/08 08:38:23;;;;;;;6.35;0.90;;;21.70;1.00;;;;;;5107787;27;20123;-81
2021/08/08 08:41:16;;;;;;;3.83;1.40;;;21.00;1.00;;;;;;5091111;28;20059;-81
2021/08/08 08:44:05;;;;;;;1.77;1.20;;;20.70;1.00;;;;;;5094764;27;20547;-81
2021/08/08 08:46:58;;;;;;;4.18;1.00;;;20.40;1.00;;;;;;5096670;28;20048;-80
2021/08/08 08:49:47;;;;;;;3.08;1.20;;;20.40;1.00;;;;;;5078367;27;20063;-81
2021/08/08 08:52:38;;;;;;;6.03;1.08;;;20.00;1.00;;;;;;5088990;28;20043;-80
2021/08/08 08:55:26;;;;;;;2.58;0.93;;;20.60;1.00;;;;;;5088313;28;20043;-80
2021/08/08 08:58:17;;;;;;;1.98;1.17;;;20.80;1.00;;;;;;5086846;27;20062;-81
2021/08/08 09:01:07;;;;;;;3.58;1.23;;;20.40;1.00;;;;;;5089088;27;20044;-81
2021/08/08 09:03:57;;;;;;;3.60;1.50;;;20.00;1.00;;;;;;5085587;28;20392;-81
2021/08/08 09:06:46;;;;;;;2.45;1.08;;;20.00;1.00;;;;;;5090338;28;20126;-81
2021/08/08 09:09:37;;;;;;;2.90;1.35;;;20.20;1.00;;;;;;5101293;27;20092;-80
2021/08/08 09:12:28;;;;;;;6.13;1.60;;;20.00;1.00;;;;;;5083237;28;20074;-81
2021/08/08 09:15:17;;;;;;;3.10;1.40;;;19.90;1.00;;;;;;5086256;27;20498;-81
2021/08/08 09:18:17;;;;;;;4.13;1.20;;;19.50;1.00;;;;;;5087992;28;20047;-81
2021/08/08 09:21:20;;;;;;;2.65;1.40;;;19.90;1.00;;;;;;5083140;27;20441;-80
2021/08/08 09:24:09;;;;;;;4.38;1.70;;;20.20;1.00;;;;;;5081470;28;20044;-81
2021/08/08 09:27:04;;;;;;;3.40;1.38;;;20.00;1.00;;;;;;5094525;28;20062;-81
2021/08/08 09:29:53;;;;;;;4.35;1.40;;;19.80;1.00;;;;;;5091287;28;20036;-80
2021/08/08 09:32:44;;;;;;;2.83;1.40;;;19.70;1.00;;;;;;5088284;28;20127;-81
2021/08/08 09:35:34;;;;;;;4.03;1.40;;;20.00;1.00;;;;;;5096882;28;20521;-81
2021/08/08 09:38:24;;;;;;;2.28;1.05;;;20.40;1.00;;;;;;5106821;28;20052;-80
2021/08/08 09:41:23;;;;;;;4.53;1.30;;;20.60;1.00;;;;;;5108278;28;20044;-81
2021/08/08 09:44:11;;;;;;;4.68;1.30;;;20.00;1.00;;;;;;5079549;28;20226;-81
2021/08/08 09:47:00;;;;;;;4.82;1.33;;;20.60;1.00;;;;;;5108516;28;20032;-81
2021/08/08 09:49:59;;;;;;;3.10;1.10;;;21.30;1.00;;;;;;5107912;27;20039;-81
2021/08/08 09:52:52;;;;;;;2.33;1.10;;;21.60;1.00;;;;;;5110852;27;20040;-81
2021/08/08 09:55:42;;;;;;;2.78;1.10;;;21.70;1.00;;;;;;5104082;28;20161;-82
2021/08/08 09:58:38;;;;;;;4.53;1.52;;;21.60;1.00;;;;;;5101980;27;20506;-82
2021/08/08 10:01:27;;;;;;;3.17;1.05;;;21.50;1.00;;;;;;5099903;27;20059;-82
2021/08/08 10:04:16;;;;;;;4.30;1.17;;;21.40;1.00;;;;;;5102762;27;20058;-82
2021/08/08 10:07:06;;;;;;;3.50;1.13;;;20.80;1.00;;;;;;5108219;27;20056;-82
2021/08/08 10:09:58;;;;;;;2.58;0.93;;;21.20;1.00;;;;;;5113207;27;20036;-82
2021/08/08 10:13:13;;;;;;;5.00;1.40;;;21.50;1.00;;;;;;5098490;27;20043;-82
2021/08/08 10:16:04;;;;;;;;;;;21.70;1.00;;;;;;5110175;27;20048;-83
2021/08/08 10:18:54;;;;;;;4.82;1.55;;;21.60;1.00;;;;;;5088864;28;20394;-83
2021/08/08 10:21:46;;;;;;;3.08;1.13;;;21.30;1.00;;;;;;5105415;27;20046;-82
2021/08/08 10:24:35;;;;;;;4.05;1.50;;;21.60;1.00;;;;;;5106645;27;20043;-81
2021/08/08 10:27:24;;;;;;;3.30;1.10;;;22.00;1.00;;;;;;5110270;27;20044;-82
2021/08/08 10:30:14;;;;;;;5.18;1.55;;;21.40;1.00;;;;;;5095755;27;20403;-82
2021/08/08 10:33:04;;;;;;;6.32;1.30;;;21.00;1.00;;;;;;5112306;27;20032;-82
2021/08/08 10:35:52;;;;;;;2.17;1.23;;;21.00;1.00;;;;;;5113685;27;20516;-81
2021/08/08 10:38:41;;;;;;;3.60;1.27;;;21.10;1.00;;;;;;5108025;27;20126;-81
2021/08/08 10:41:29;;;;;;;3.08;1.38;;;20.90;1.00;;;;;;5119182;27;20074;-81
2021/08/08 10:44:20;;;;;;;2.20;1.10;;;21.10;1.00;;;;;;5110384;27;20046;-83
2021/08/08 10:47:10;;;;;;;3.13;1.52;;;21.30;1.00;;;;;;5093013;28;20139;-82
2021/08/08 10:50:08;;;;;;;3.33;1.23;;;21.40;1.00;;;;;;5081352;27;20035;-82
2021/08/08 10:52:57;;;;;;;1.60;1.10;;;21.20;1.00;;;;;;5096509;27;20080;-82
2021/08/08 10:55:45;;;;;;;4.47;1.40;;;21.30;1.00;;;;;;5110612;27;20047;-81
2021/08/08 10:58:35;;;;;;;3.70;1.00;;;21.40;1.00;;;;;;5108910;27;20675;-80
2021/08/08 11:01:24;;;;;;;3.50;1.10;;;20.60;1.00;;;;;;5107532;27;20043;-81
2021/08/08 11:04:15;;;;;;;1.85;1.10;;;20.80;1.00;;;;;;5093708;27;20138;-81
2021/08/08 11:07:04;;;;;;;2.72;1.25;;;21.10;1.00;;;;;;5108462;27;20054;-81
2021/08/08 11:09:53;;;;;;;3.47;1.13;;;21.20;1.00;;;;;;5092922;27;20097;-81
2021/08/08 11:12:42;;;;;;;4.47;1.13;;;21.20;1.00;;;;;;5086795;27;20459;-81
2021/08/08 11:15:35;;;;;;;3.78;1.27;;;21.30;1.00;;;;;;5097372;27;20051;-81
2021/08/08 11:18:31;;;;;;;2.47;1.35;;;21.40;1.00;;;;;;5092925;27;20071;-82
2021/08/08 11:21:21;;;;;;;2.47;1.08;;;21.40;1.00;;;;;;5108558;27;20521;-83
2021/08/08 11:24:11;;;;;;;3.58;1.05;;;21.60;1.00;;;;;;5100825;27;20050;-81
2021/08/08 11:27:00;;;;;;;2.15;0.93;;;21.60;1.00;;;;;;5108763;27;20040;-81
2021/08/08 11:29:52;;;;;;;2.63;1.00;;;21.90;1.00;;;;;;5104819;27;20070;-82
2021/08/08 11:32:41;;;;;;;1.42;1.02;;;21.00;1.00;;;;;;5096673;27;20051;-82
2021/08/08 11:35:30;;;;;;;1.92;1.17;;;21.00;1.00;;;;;;5109646;27;20455;-81
2021/08/08 11:38:22;;;;;;;2.35;1.20;;;20.80;1.00;;;;;;5093821;27;20051;-82
2021/08/08 11:41:21;;;;;;;2.30;1.20;;;20.00;1.00;;;;;;5111001;27;20040;-81
2021/08/08 11:44:12;;;;;;;4.53;1.08;;;19.70;1.00;;;;;;5079059;27;20049;-84
2021/08/08 11:47:25;;;;;;;3.10;0.80;;;20.40;1.00;;;;;;5097140;27;20054;-83
2021/08/08 11:50:13;;;;;;;2.20;0.85;;;19.10;1.00;;;;;;5106080;27;20185;-83
2021/08/08 11:53:03;;;;;;;4.30;1.00;;;19.20;1.00;;;;;;5092584;28;20048;-75
2021/08/08 11:55:53;;;;;;;1.60;0.73;;;19.10;1.00;;;;;;5106751;27;20388;-75
2021/08/08 11:58:49;;;;;;;1.33;0.80;;;19.20;1.00;;;;;;5108674;27;20039;-74
2021/08/08 12:01:38;;;;;;;3.00;1.02;;;19.40;1.00;;;;;;5106213;27;20066;-76
2021/08/08 12:04:27;;;;;;;1.63;0.90;;;18.40;1.00;;;;;;5113084;27;20050;-76
2021/08/08 12:07:15;;;;;;;2.05;1.13;;;18.20;1.00;;;;;;5107217;27;20043;-75
2021/08/08 12:10:05;;;;;;;2.55;1.30;;;17.90;1.00;;;;;;5091645;27;20119;-75
2021/08/08 12:12:55;;;;;;;6.18;1.10;;;17.80;1.00;;;;;;5114817;27;20059;-74
2021/08/08 12:15:43;;;;;;;2.88;0.90;;;18.00;1.00;;;;;;5111954;27;20048;-75
2021/08/08 12:18:32;;;;;;;2.65;1.08;;;18.00;1.00;;;;;;5106594;27;20410;-74
2021/08/08 12:21:20;;;;;;;1.63;0.82;;;18.20;1.00;;;;;;5083851;27;20329;-75
2021/08/08 12:24:10;;;;;;;3.75;1.02;;;18.20;1.00;;;;;;5108450;27;20058;-75
2021/08/08 12:26:58;;;;;;;1.45;0.70;;;18.60;1.00;;;;;;5115980;27;20047;-75
2021/08/08 12:29:48;;;;;;;2.17;0.90;;;18.60;1.00;;;;;;5103735;27;20502;-75
2021/08/08 12:32:38;;;;;;;2.47;0.60;;;18.80;1.00;;;;;;5096330;27;20048;-75
2021/08/08 12:35:27;;;;;;;1.83;0.70;;;18.60;1.00;;;;;;5100367;27;20273;-75
2021/08/08 12:38:16;;;;;;;1.05;0.80;;;19.10;1.00;;;;;;5101931;27;20143;-75
2021/08/08 12:41:05;;;;;;;1.65;0.90;;;19.30;1.00;;;;;;5111703;27;20407;-75
2021/08/08 12:43:58;;;;;;;2.35;0.80;;;20.20;1.00;;;;;;5105781;27;20127;-75
2021/08/08 12:46:47;;;;;;;3.00;0.70;;;20.50;1.00;;;;;;5104452;27;20490;-75
2021/08/08 12:49:37;;;;;;;0.80;0.70;;;20.40;1.00;;;;;;5103937;27;20047;-75
2021/08/08 12:52:26;;;;;;;5.13;0.82;;;20.60;1.00;;;;;;5110926;27;20057;-76
2021/08/08 12:55:15;;;;;;;1.58;0.75;;;21.00;1.00;;;;;;5109764;27;20058;-76
2021/08/08 12:58:05;;;;;;;2.47;1.00;;;20.50;1.00;;;;;;5106584;27;20046;-75
2021/08/08 13:00:53;;;;;;;3.60;0.90;;;20.80;1.00;;;;;;5104596;27;20054;-75
2021/08/08 13:03:43;;;;;;;2.08;0.90;;;20.40;1.00;;;;;;5106709;27;20122;-75
2021/08/08 13:06:31;;;;;;;2.38;1.10;;;21.30;1.00;;;;;;5104526;27;20055;-77
2021/08/08 13:09:19;;;;;;;3.20;0.80;;;21.90;1.00;;;;;;5101878;27;20122;-77
2021/08/08 13:12:09;;;;;;;2.45;0.80;;;21.70;1.00;;;;;;5105106;27;20039;-76
2021/08/08 13:14:57;;;;;;;4.30;1.30;;;21.60;1.00;;;;;;5112010;27;20054;-75
2021/08/08 13:17:46;;;;;;;3.13;0.80;;;20.80;1.00;;;;;;5095907;27;20111;-75
2021/08/08 13:20:40;;;;;;;2.03;0.85;;;20.80;1.00;;;;;;5081693;28;20423;-74
2021/08/08 13:23:32;;;;;;;1.15;0.70;;;21.00;1.00;;;;;;5102870;27;20478;-74
2021/08/08 13:26:20;;;;;;;2.45;0.80;;;20.90;1.00;;;;;;5099480;27;20062;-75
2021/08/08 13:29:08;;;;;;;3.80;1.10;;;20.90;1.00;;;;;;5102687;28;20127;-75
2021/08/08 13:31:57;;;;;;;1.27;0.75;;;21.00;1.00;;;;;;5107559;27;20039;-74
2021/08/08 13:34:45;;;;;;;1.50;0.73;;;21.10;1.00;;;;;;5097658;28;20047;-75
2021/08/08 13:37:35;;;;;;;2.15;0.80;;;20.40;1.00;;;;;;5095731;28;20501;-76
2021/08/08 13:40:23;;;;;;;3.22;1.20;;;20.60;1.00;;;;;;5098717;28;20055;-74
2021/08/08 13:43:12;;;;;;;1.65;0.90;;;20.20;1.00;;;;;;5109048;27;20062;-74
2021/08/08 13:46:00;;;;;;;3.63;1.08;;;20.20;1.00;;;;;;5104950;28;20126;-75
2021/08/08 13:48:48;;;;;;;1.90;0.80;;;20.30;1.00;;;;;;5105157;28;20058;-75
2021/08/08 13:51:37;;;;;;;1.10;0.98;;;20.30;1.00;;;;;;5108135;27;20097;-75
2021/08/08 13:54:27;;;;;;;2.20;1.00;;;20.50;1.00;;;;;;5104970;28;20123;-75
2021/08/08 13:57:16;;;;;;;1.30;0.70;;;20.60;1.00;;;;;;5109949;27;20067;-75
2021/08/08 14:00:05;;;;;;;2.53;1.13;;;20.40;1.00;;;;;;5098437;28;20388;-75
2021/08/08 14:03:00;;;;;;;3.83;1.20;;;20.70;1.00;;;;;;5106915;28;20051;-75
2021/08/08 14:05:50;;;;;;;2.45;1.00;;;20.90;1.00;;;;;;5106570;27;20042;-75
2021/08/08 14:08:38;;;;;;;2.05;0.90;;;20.90;1.00;;;;;;5108312;27;20036;-75
2021/08/08 14:11:28;;;;;;;2.08;1.00;;;21.40;1.00;;;;;;5103182;28;20048;-76
2021/08/08 14:14:16;;;;;;;3.38;1.08;;;21.40;1.00;;;;;;5102491;28;20840;-76
2021/08/08 14:17:05;;;;;;;1.40;0.80;;;21.70;1.00;;;;;;5104297;28;20044;-75
2021/08/08 14:19:53;;;;;;;2.47;0.82;;;20.90;1.00;;;;;;5102513;27;20036;-76
2021/08/08 14:22:42;;;;;;;3.50;1.30;;;21.30;1.00;;;;;;5104601;28;20391;-77
2021/08/08 14:25:30;;;;;;;6.38;1.08;;;21.70;1.00;;;;;;5094317;28;20035;-75
2021/08/08 14:28:20;;;;;;;1.63;0.80;;;21.90;1.00;;;;;;5107937;27;20039;-75
2021/08/08 14:31:08;;;;;;;2.80;1.00;;;21.60;1.00;;;;;;5105791;27;20048;-75
2021/08/08 14:33:57;;;;;;;2.10;1.00;;;22.10;1.00;;;;;;5102571;28;20048;-75
2021/08/08 14:36:45;;;;;;;2.72;0.85;;;22.20;1.00;;;;;;5107161;27;20494;-75
2021/08/08 14:39:34;;;;;;;2.28;0.70;;;22.30;1.00;;;;;;5107263;27;20129;-75
2021/08/08 14:42:22;;;;;;;2.30;1.10;;;21.60;1.00;;;;;;5109897;27;20076;-75
2021/08/08 14:45:13;;;;;;;4.43;1.20;;;21.90;1.00;;;;;;5115449;27;20055;-75
2021/08/08 14:48:01;;;;;;;1.25;0.80;;;21.80;1.00;;;;;;5112823;27;20047;-75
2021/08/08 14:50:50;;;;;;;3.03;1.10;;;21.90;1.00;;;;;;5099680;27;20069;-74
2021/08/08 14:53:39;;;;;;;2.70;1.30;;;21.80;1.00;;;;;;5102498;27;20395;-73